createdAt,value
2023-04-25T00:02:00.486Z,11.90
2023-04-25T00:05:59.603Z,10.90
2023-04-25T00:09:57.612Z,15.10
2023-04-25T00:13:57.636Z,12.30
2023-04-25T00:17:55.600Z,15.80
2023-04-25T00:21:53.496Z,12.70
2023-04-25T00:25:51.473Z,16.10
2023-04-25T00:29:49.559Z,12.80
2023-04-25T00:33:47.533Z,13.70
2023-04-25T00:37:45.420Z,12.80
2023-04-25T00:41:43.801Z,15.20
2023-04-25T00:45:44.558Z,14.10
2023-04-25T00:49:42.514Z,15.10
2023-04-25T00:53:42.541Z,16.00
2023-04-25T00:57:42.837Z,13.80
2023-04-25T01:01:40.455Z,14.80
2023-04-25T01:05:38.543Z,11.80
2023-04-25T01:09:37.435Z,12.80
2023-04-25T01:13:35.509Z,15.60
2023-04-25T01:17:35.456Z,14.60
2023-04-25T01:21:34.443Z,16.00
2023-04-25T01:25:32.378Z,20.20
2023-04-25T01:29:30.436Z,16.90
2023-04-25T01:33:29.347Z,25.50
2023-04-25T01:37:27.384Z,14.90
2023-04-25T01:41:25.393Z,14.10
2023-04-25T01:45:24.410Z,19.20
2023-04-25T01:49:22.333Z,19.20
2023-04-25T01:53:20.350Z,19.40
2023-04-25T01:57:18.396Z,13.20
2023-04-25T02:01:16.524Z,22.10
2023-04-25T02:09:21.389Z,22.60
2023-04-25T02:13:20.294Z,14.00
2023-04-25T02:17:29.394Z,19.00
2023-04-25T02:21:27.385Z,15.90
2023-04-25T02:25:25.355Z,19.40
2023-04-25T02:29:23.313Z,13.70
2023-04-25T02:33:21.413Z,17.70
2023-04-25T02:37:19.285Z,16.90
2023-04-25T02:41:17.364Z,17.20
2023-04-25T02:45:15.349Z,17.60
2023-04-25T02:49:13.423Z,20.20
2023-04-25T02:53:11.302Z,20.50
2023-04-25T02:57:12.290Z,18.10
2023-04-25T03:01:10.368Z,23.60
2023-04-25T03:05:08.337Z,20.10
2023-04-25T03:09:06.291Z,18.40
2023-04-25T03:13:04.376Z,18.60
2023-04-25T03:17:02.485Z,20.80
2023-04-25T03:21:00.254Z,20.70
2023-04-25T03:24:58.257Z,21.30
2023-04-25T03:28:56.293Z,12.10
2023-04-25T03:32:54.317Z,20.30
2023-04-25T03:36:52.241Z,12.00
2023-04-25T03:40:50.220Z,17.30
2023-04-25T03:44:55.267Z,16.10
2023-04-25T03:48:54.265Z,15.70
2023-04-25T03:53:00.296Z,14.80
2023-04-25T03:57:14.295Z,13.50
2023-04-25T04:01:15.219Z,12.60
2023-04-25T04:05:15.354Z,14.20
2023-04-25T04:09:19.226Z,15.40
2023-04-25T04:13:17.194Z,14.50
2023-04-25T04:17:15.221Z,14.40
2023-04-25T04:21:13.168Z,13.50
2023-04-25T04:25:13.201Z,13.90
2023-04-25T04:29:38.263Z,13.60
2023-04-25T04:33:40.178Z,16.90
2023-04-25T04:37:39.236Z,14.90
2023-04-25T04:41:42.260Z,14.10
2023-04-25T04:45:57.248Z,13.20
2023-04-25T04:50:16.203Z,15.70
2023-04-25T04:54:32.105Z,14.00
2023-04-25T04:58:44.180Z,14.70
2023-04-25T05:02:58.240Z,16.70
2023-04-25T05:07:05.145Z,18.20
2023-04-25T05:11:27.107Z,16.70
2023-04-25T05:19:55.103Z,17.00
2023-04-25T05:24:10.170Z,17.70
2023-04-25T05:28:29.085Z,20.00
2023-04-25T05:32:45.142Z,16.90
2023-04-25T05:36:43.119Z,22.70
2023-04-25T05:40:41.096Z,20.00
2023-04-25T05:45:04.079Z,20.10
2023-04-25T05:49:19.694Z,16.40
2023-04-25T05:53:29.106Z,21.80
2023-04-25T05:57:36.087Z,19.00
2023-04-25T06:01:14.112Z,30.60
2023-04-25T06:04:38.195Z,23.80
2023-04-25T06:08:03.301Z,20.70
2023-04-25T06:11:27.184Z,21.60
2023-04-25T06:14:51.145Z,18.20
2023-04-25T06:18:15.272Z,27.00
2023-04-25T06:21:41.887Z,21.20
2023-04-25T06:25:13.749Z,63.70
2023-04-25T06:28:37.931Z,21.50
2023-04-25T06:32:02.230Z,20.50
2023-04-25T06:35:27.168Z,17.90
2023-04-25T06:38:51.540Z,20.70
2023-04-25T06:42:16.107Z,26.30
2023-04-25T06:45:49.471Z,19.70
2023-04-25T06:49:13.603Z,20.50
2023-04-25T06:52:37.554Z,18.70
2023-04-25T06:56:01.972Z,22.50
2023-04-25T06:59:44.690Z,27.10
2023-04-25T07:03:08.809Z,35.10
2023-04-25T07:06:33.186Z,22.90
2023-04-25T07:09:59.506Z,21.30
2023-04-25T07:13:25.448Z,26.00
2023-04-25T07:16:49.435Z,21.00
2023-04-25T07:20:13.401Z,14.50
2023-04-25T07:23:38.671Z,19.20
2023-04-25T07:27:07.321Z,17.70
2023-04-25T07:30:43.144Z,18.10
2023-04-25T07:34:07.499Z,16.60
2023-04-25T07:37:31.831Z,21.20
2023-04-25T07:41:00.398Z,18.30
2023-04-25T07:44:24.425Z,18.10
2023-04-25T07:47:48.713Z,17.50
2023-04-25T07:51:12.831Z,17.10
2023-04-25T07:54:36.853Z,14.50
2023-04-25T07:58:11.200Z,16.20
2023-04-25T08:01:37.124Z,16.00
2023-04-25T08:05:04.242Z,12.70
2023-04-25T08:08:28.320Z,15.20
2023-04-25T08:11:53.054Z,9.60
2023-04-25T08:15:21.085Z,7.30
2023-04-25T08:18:45.075Z,6.80
2023-04-25T08:22:08.996Z,9.70
2023-04-25T08:25:44.924Z,6.80
2023-04-25T08:29:09.370Z,7.60
2023-04-25T08:32:39.919Z,7.20
2023-04-25T08:36:24.491Z,5.60
2023-04-25T08:39:59.841Z,6.50
2023-04-25T08:43:44.218Z,5.00
2023-04-25T08:47:08.892Z,8.70
2023-04-25T08:50:42.742Z,5.50
2023-04-25T08:54:34.039Z,5.80
2023-04-25T08:58:01.361Z,7.50
2023-04-25T09:01:25.905Z,7.50
2023-04-25T09:04:51.590Z,8.10
2023-04-25T09:08:15.458Z,5.70
2023-04-25T09:11:40.061Z,8.50
2023-04-25T09:15:09.715Z,7.40
2023-04-25T09:18:48.485Z,7.90
2023-04-25T09:22:13.040Z,7.00
2023-04-25T09:25:39.988Z,7.20
2023-04-25T09:29:09.459Z,7.60
2023-04-25T09:32:36.537Z,9.30
2023-04-25T09:36:12.278Z,7.60
2023-04-25T09:40:00.336Z,8.00
2023-04-25T09:43:26.305Z,8.60
2023-04-25T09:46:54.897Z,8.20
2023-04-25T09:50:21.604Z,8.90
2023-04-25T09:53:51.889Z,9.90
2023-04-25T09:57:32.557Z,9.80
2023-04-25T10:01:01.384Z,8.50
2023-04-25T10:04:32.172Z,10.70
2023-04-25T10:08:10.322Z,10.30
2023-04-25T10:11:34.819Z,12.50
2023-04-25T10:15:00.294Z,11.80
2023-04-25T10:21:53.356Z,12.60
2023-04-25T10:25:17.313Z,13.70
2023-04-25T10:29:02.004Z,13.10
2023-04-25T10:32:25.998Z,10.70
2023-04-25T10:35:49.934Z,15.90
2023-04-25T10:39:13.851Z,19.70
2023-04-25T10:42:38.000Z,14.40
2023-04-25T10:46:02.394Z,8.40
2023-04-25T10:49:45.889Z,7.70
2023-04-25T10:53:17.407Z,9.70
2023-04-25T10:56:45.607Z,9.00
2023-04-25T11:00:16.600Z,10.20
2023-04-25T11:03:43.840Z,9.30
2023-04-25T11:07:31.186Z,10.90
2023-04-25T11:10:55.523Z,9.20
2023-04-25T11:14:19.447Z,11.40
2023-04-25T11:17:44.520Z,9.40
2023-04-25T11:21:08.475Z,10.30
2023-04-25T11:24:35.429Z,9.40
2023-04-25T11:28:02.247Z,9.50
2023-04-25T11:31:27.757Z,11.00
2023-04-25T11:38:16.080Z,9.70
2023-04-25T11:41:41.582Z,10.40
2023-04-25T11:45:07.807Z,11.80
2023-04-25T11:48:39.319Z,11.10
2023-04-25T11:52:03.241Z,12.60
2023-04-25T11:55:27.604Z,6.40
2023-04-25T11:59:02.938Z,8.60
2023-04-25T12:02:27.984Z,3.60
2023-04-25T12:05:52.621Z,4.10
2023-04-25T12:09:20.069Z,4.10
2023-04-25T12:12:44.997Z,5.10
2023-04-25T12:16:08.910Z,4.70
2023-04-25T12:19:37.523Z,7.00
2023-04-25T12:23:01.954Z,5.50
2023-04-25T12:26:26.660Z,6.20
2023-04-25T12:29:58.409Z,8.90
2023-04-25T12:33:22.774Z,7.70
2023-04-25T12:36:46.830Z,7.60
2023-04-25T12:40:11.202Z,8.10
2023-04-25T12:43:35.677Z,7.90
2023-04-25T12:47:01.047Z,8.90
2023-04-25T12:50:25.028Z,9.40
2023-04-25T12:53:48.898Z,8.70
2023-04-25T12:57:13.200Z,8.90
2023-04-25T13:00:37.136Z,9.20
2023-04-25T13:04:01.063Z,11.30
2023-04-25T13:07:25.455Z,8.50
2023-04-25T13:10:52.201Z,14.30
2023-04-25T13:14:16.798Z,16.10
2023-04-25T13:17:41.440Z,13.80
2023-04-25T13:21:05.765Z,10.20
2023-04-25T13:24:29.515Z,13.20
2023-04-25T13:27:53.288Z,14.50
2023-04-25T13:31:38.676Z,11.10
2023-04-25T13:35:36.567Z,15.10
2023-04-25T13:39:34.539Z,12.90
2023-04-25T13:43:32.564Z,17.40
2023-04-25T13:47:30.804Z,20.30
2023-04-25T13:51:28.877Z,18.80
2023-04-25T13:55:27.541Z,19.30
2023-04-25T13:59:25.663Z,19.30
2023-04-25T14:03:23.660Z,18.50
2023-04-25T14:07:23.520Z,21.20
2023-04-25T14:11:22.475Z,20.50
2023-04-25T14:15:20.582Z,21.80
2023-04-25T14:19:20.332Z,22.20
2023-04-25T14:23:19.566Z,28.10
2023-04-25T14:27:17.636Z,22.20
2023-04-25T14:31:16.586Z,21.20
2023-04-25T14:35:14.492Z,21.80
2023-04-25T14:39:12.560Z,24.10
2023-04-25T14:43:10.532Z,24.90
2023-04-25T14:47:08.672Z,25.30
2023-04-25T14:51:06.485Z,27.50
2023-04-25T14:55:04.471Z,25.20
2023-04-25T14:59:02.553Z,27.60
2023-04-25T15:03:00.714Z,31.60
2023-04-25T15:06:58.448Z,29.30
2023-04-25T15:10:56.456Z,27.90
2023-04-25T15:14:56.506Z,31.40
2023-04-25T15:18:54.417Z,28.30
2023-04-25T15:22:56.530Z,27.90
2023-04-25T15:26:54.453Z,27.40
2023-04-25T15:30:53.419Z,27.00
2023-04-25T15:34:51.534Z,26.30
2023-04-25T15:38:56.476Z,28.00
2023-04-25T15:42:58.460Z,28.10
2023-04-25T15:46:56.360Z,34.60
2023-04-25T15:50:54.403Z,31.80
2023-04-25T15:54:52.395Z,31.30
2023-04-25T15:58:50.475Z,32.80
2023-04-25T16:02:48.650Z,36.90
2023-04-25T16:06:46.527Z,35.10
2023-04-25T16:10:45.425Z,37.80
2023-04-25T16:14:43.360Z,37.10
2023-04-25T16:18:41.390Z,37.30
2023-04-25T16:22:39.381Z,38.50
2023-04-25T16:26:37.391Z,35.60
2023-04-25T16:30:35.440Z,35.30
2023-04-25T16:34:34.425Z,36.20
2023-04-25T16:38:32.611Z,35.40
2023-04-25T16:42:30.293Z,30.70
2023-04-25T16:46:28.396Z,29.40
2023-04-25T16:50:30.331Z,28.90
2023-04-25T16:54:28.412Z,34.00
2023-04-25T16:58:26.289Z,28.30
2023-04-25T17:02:27.562Z,28.70
2023-04-25T17:06:25.318Z,26.40
2023-04-25T17:10:23.304Z,26.50
2023-04-25T17:14:21.383Z,23.40
2023-04-25T17:18:24.928Z,25.20
2023-04-25T17:22:23.268Z,27.00
2023-04-25T17:26:21.299Z,23.50
2023-04-25T17:30:20.270Z,26.80
2023-04-25T17:34:23.266Z,25.50
2023-04-25T17:38:25.305Z,28.00
2023-04-25T17:42:23.331Z,24.50
2023-04-25T17:46:21.268Z,24.30
2023-04-25T17:50:20.249Z,22.80
2023-04-25T17:54:18.236Z,24.00
2023-04-25T17:58:16.301Z,22.10
2023-04-25T18:02:15.366Z,20.90
2023-04-25T18:06:13.240Z,25.70
2023-04-25T18:10:12.238Z,21.00
2023-04-25T18:14:10.237Z,23.20
2023-04-25T18:18:10.234Z,23.10
2023-04-25T18:22:10.191Z,24.00
2023-04-25T18:26:10.180Z,27.20
2023-04-25T18:30:08.230Z,24.70
2023-04-25T18:34:07.218Z,27.70
2023-04-25T18:38:05.254Z,29.70
2023-04-25T18:42:06.812Z,28.10
2023-04-25T18:46:07.590Z,27.30
2023-04-25T18:50:07.483Z,27.10
2023-04-25T18:54:08.288Z,25.50
2023-04-25T18:58:06.164Z,27.30
2023-04-25T19:02:04.304Z,25.10
2023-04-25T19:06:03.154Z,27.50
2023-04-25T19:10:01.170Z,25.40
2023-04-25T19:14:04.247Z,29.10
2023-04-25T19:18:04.333Z,25.80
2023-04-25T19:22:03.243Z,29.00
2023-04-25T19:26:02.340Z,26.00
2023-04-25T19:30:14.152Z,25.70
2023-04-25T19:34:12.412Z,26.70
2023-04-25T19:38:10.157Z,28.10
2023-04-25T19:42:11.196Z,25.00
2023-04-25T19:46:10.227Z,23.80
2023-04-25T19:50:10.177Z,23.70
2023-04-25T19:54:08.180Z,25.40
2023-04-25T19:58:06.201Z,28.50
2023-04-25T20:02:04.140Z,25.40
2023-04-25T20:06:02.105Z,25.50
2023-04-25T20:10:01.066Z,23.80
2023-04-25T20:14:02.612Z,23.00
2023-04-25T20:18:00.203Z,22.00
2023-04-25T20:21:58.153Z,23.30
2023-04-25T20:25:56.035Z,19.60
2023-04-25T20:29:54.063Z,21.90
2023-04-25T20:33:52.027Z,18.80
2023-04-25T20:37:51.099Z,20.80
2023-04-25T20:41:49.188Z,18.50
2023-04-25T20:45:47.092Z,17.70
2023-04-25T20:49:45.154Z,14.90
2023-04-25T20:53:43.043Z,18.90
2023-04-25T20:57:41.095Z,15.90
2023-04-25T21:01:39.221Z,17.80
2023-04-25T21:05:37.007Z,18.80
2023-04-25T21:09:35.050Z,21.30
2023-04-25T21:13:35.070Z,20.70
2023-04-25T21:17:33.037Z,19.50
2023-04-25T21:21:30.999Z,17.80
2023-04-25T21:25:38.026Z,19.00
2023-04-25T21:29:35.949Z,19.00
2023-04-25T21:33:34.037Z,17.40
2023-04-25T21:37:32.179Z,17.10
2023-04-25T21:41:31.996Z,16.40
2023-04-25T21:45:32.411Z,17.30
2023-04-25T21:49:36.970Z,14.30
2023-04-25T21:53:34.934Z,13.90
2023-04-25T21:57:32.954Z,11.60
2023-04-25T22:01:30.930Z,10.80
2023-04-25T22:05:29.080Z,9.30
2023-04-25T22:09:27.907Z,11.90
2023-04-25T22:13:25.972Z,9.40
2023-04-25T22:17:23.886Z,10.50
2023-04-25T22:21:22.002Z,11.90
2023-04-25T22:25:19.908Z,9.90
2023-04-25T22:29:17.963Z,11.20
2023-04-25T22:33:15.872Z,11.80
2023-04-25T22:37:13.887Z,7.90
2023-04-25T22:41:11.922Z,12.90
2023-04-25T22:45:09.890Z,11.50
2023-04-25T22:49:07.836Z,10.00
2023-04-25T22:53:05.872Z,11.00
2023-04-25T22:57:04.840Z,8.40
2023-04-25T23:01:02.924Z,11.50
2023-04-25T23:05:01.837Z,9.80
2023-04-25T23:08:59.896Z,10.10
2023-04-25T23:12:57.898Z,10.00
2023-04-25T23:16:55.977Z,10.50
2023-04-25T23:20:53.780Z,12.10
2023-04-25T23:24:51.820Z,8.70
2023-04-25T23:28:50.052Z,10.70
2023-04-25T23:32:47.906Z,9.40
2023-04-25T23:36:45.774Z,9.00
2023-04-25T23:40:43.813Z,12.70
2023-04-25T23:44:41.771Z,9.90
2023-04-25T23:48:39.821Z,10.40
2023-04-25T23:52:37.765Z,13.50
2023-04-25T23:56:36.807Z,13.00
